Time;durP1;ratioP1;P1;durP2;ratioP2;P2;SDS_P1;SDS_P2;PMS_P1;PMS_P2;Temp;Humidity;BMP_temperature;BMP_pressure;BME280_temperature;BME280_humidity;BME280_pressure;Samples;Min_cycle;Max_cycle;Signal;HPM_P1;HPM_P2
2023/11/27 00:04:58;;;;;;;4.77;1.80;;;14.50;99.90;;;;;;10552104;27;20079;-22
2023/11/27 00:10:00;;;;;;;4.43;1.90;;;15.10;99.90;;;;;;10554884;27;21058;-22
2023/11/27 00:15:02;;;;;;;2.53;1.57;;;15.60;99.90;;;;;;10551569;27;20209;-22
2023/11/27 00:20:09;;;;;;;2.13;1.67;;;16.20;99.20;;;;;;10558648;28;20105;-22
2023/11/27 00:25:10;;;;;;;3.90;1.80;;;15.40;99.90;;;;;;10561210;27;20039;-23
2023/11/27 00:30:13;;;;;;;;;;;16.80;96.80;;;;;;10566157;27;20386;-22
2023/11/27 00:35:17;;;;;;;4.87;1.83;;;16.00;97.50;;;;;;10566459;27;19935;-23
2023/11/27 00:40:19;;;;;;;3.30;1.85;;;13.50;99.90;;;;;;10565482;27;20057;-22
2023/11/27 00:45:21;;;;;;;6.18;2.50;;;15.20;98.30;;;;;;10567573;27;20051;-21
2023/11/27 00:50:24;;;;;;;3.83;1.60;;;13.40;99.80;;;;;;10564433;27;20089;-22
2023/11/27 00:55:26;;;;;;;3.05;1.80;;;14.90;99.90;;;;;;10565942;27;20228;-23
2023/11/27 01:00:28;;;;;;;2.97;1.73;;;14.70;97.70;;;;;;10571422;27;20046;-23
2023/11/27 01:05:31;;;;;;;2.20;1.43;;;12.60;99.90;;;;;;10568805;27;20035;-22
2023/11/27 01:10:33;;;;;;;3.58;2.08;;;13.60;99.90;;;;;;10565249;27;20043;-22
2023/11/27 01:15:35;;;;;;;2.35;1.70;;;13.20;99.90;;;;;;10567111;27;20043;-23
2023/11/27 01:20:39;;;;;;;2.93;1.67;;;13.90;99.90;;;;;;10561397;27;20773;-22
2023/11/27 01:25:41;;;;;;;7.90;1.65;;;15.90;99.00;;;;;;10562698;27;20047;-22
2023/11/27 01:30:43;;;;;;;2.67;1.55;;;15.90;99.20;;;;;;10572417;27;20797;-22
2023/11/27 01:35:46;;;;;;;1.92;1.50;;;15.00;95.00;;;;;;10569008;27;20054;-22
2023/11/27 01:40:48;;;;;;;1.83;1.23;;;15.10;98.70;;;;;;10565572;27;20083;-23
2023/11/27 01:46:07;;;;;;;2.93;1.60;;;16.10;97.60;;;;;;10556646;27;20127;-23
2023/11/27 01:51:11;;;;;;;2.42;1.30;;;15.50;93.80;;;;;;10558483;27;21139;-23
2023/11/27 01:56:14;;;;;;;2.55;1.30;;;15.20;99.90;;;;;;10557936;27;20092;-23
2023/11/27 02:01:17;;;;;;;1.60;1.30;;;14.80;99.00;;;;;;10559702;27;20062;-23
2023/11/27 02:06:20;;;;;;;1.20;0.98;;;15.60;99.00;;;;;;10553162;27;20044;-22
2023/11/27 02:11:22;;;;;;;1.02;0.98;;;15.90;99.10;;;;;;10558468;27;20116;-23
2023/11/27 02:16:24;;;;;;;1.23;1.00;;;16.20;97.50;;;;;;10564852;27;20576;-22
2023/11/27 02:21:28;;;;;;;1.80;0.93;;;15.10;97.50;;;;;;10558918;27;20089;-22
2023/11/27 02:26:31;;;;;;;3.28;1.50;;;16.50;96.80;;;;;;10560060;27;20066;-23
2023/11/27 02:31:33;;;;;;;1.67;1.10;;;15.30;99.00;;;;;;10561643;27;20093;-23
2023/11/27 02:36:38;;;;;;;1.20;1.10;;;15.80;98.50;;;;;;10560533;27;20096;-22
2023/11/27 02:41:41;;;;;;;2.00;0.90;;;16.60;96.70;;;;;;10562020;27;20050;-23
2023/11/27 02:46:43;;;;;;;1.98;1.15;;;16.50;96.50;;;;;;10560100;27;20082;-22
2023/11/27 02:51:45;;;;;;;2.10;1.30;;;16.20;97.10;;;;;;10561016;27;20054;-22
2023/11/27 02:56:48;;;;;;;2.20;1.13;;;16.60;94.50;;;;;;10560822;27;20061;-23
2023/11/27 03:01:50;;;;;;;1.42;0.70;;;15.80;98.20;;;;;;10563420;27;20166;-23
2023/11/27 03:06:52;;;;;;;1.90;0.93;;;16.50;96.60;;;;;;10567287;27;20035;-22
2023/11/27 03:11:55;;;;;;;1.00;0.80;;;14.90;98.50;;;;;;10554661;27;20054;-21
2023/11/27 03:16:57;;;;;;;1.08;0.98;;;15.50;99.10;;;;;;10562383;27;20047;-22
2023/11/27 03:21:59;;;;;;;1.20;0.77;;;15.10;93.70;;;;;;10547634;27;20501;-23
2023/11/27 03:27:04;;;;;;;2.10;1.03;;;16.00;98.50;;;;;;10558483;27;20084;-22
2023/11/27 03:32:06;;;;;;;3.03;0.85;;;16.00;97.50;;;;;;10560019;27;20054;-22
2023/11/27 03:37:09;;;;;;;1.23;0.90;;;15.50;98.80;;;;;;10560757;27;20153;-22
2023/11/27 03:42:12;;;;;;;0.90;0.75;;;15.70;98.70;;;;;;10556903;27;20055;-22
2023/11/27 03:47:14;;;;;;;1.42;0.98;;;16.40;96.60;;;;;;10555242;27;20188;-22
2023/11/27 03:52:16;;;;;;;1.00;0.70;;;16.70;95.90;;;;;;10560646;27;20058;-23
2023/11/27 04:15:32;;;;;;;1.33;0.88;;;16.90;94.40;;;;;;10493268;27;20136;-22
2023/11/27 04:20:34;;;;;;;1.40;0.70;;;16.80;94.90;;;;;;10501575;28;20059;-23
2023/11/27 04:25:36;;;;;;;0.70;0.67;;;17.10;94.30;;;;;;10499236;28;20079;-22
2023/11/27 04:30:39;;;;;;;1.40;0.67;;;17.10;94.30;;;;;;10509000;28;20043;-22
2023/11/27 04:35:42;;;;;;;1.67;0.60;;;17.10;94.20;;;;;;10508774;28;20155;-23
2023/11/27 04:40:43;;;;;;;0.52;0.52;;;17.10;93.70;;;;;;10503957;28;20170;-23
2023/11/27 04:45:47;;;;;;;0.73;0.70;;;17.10;93.90;;;;;;10507056;28;20097;-21
2023/11/27 04:50:49;;;;;;;0.90;0.65;;;17.20;93.70;;;;;;10511018;28;20067;-23
2023/11/27 04:55:51;;;;;;;0.90;0.73;;;17.10;94.10;;;;;;10511758;28;20689;-22
2023/11/27 05:00:54;;;;;;;0.63;0.60;;;17.20;94.00;;;;;;10503509;28;20055;-22
2023/11/27 05:05:58;;;;;;;0.60;0.60;;;17.20;94.00;;;;;;10511883;28;20056;-23
2023/11/27 05:11:00;;;;;;;0.55;0.50;;;17.20;93.90;;;;;;10505324;28;20094;-22
2023/11/27 05:16:03;;;;;;;1.20;0.87;;;17.20;94.00;;;;;;10502240;28;20611;-22
2023/11/27 05:21:05;;;;;;;1.58;0.60;;;17.20;93.90;;;;;;10511826;28;20473;-22
2023/11/27 05:26:08;;;;;;;2.20;1.00;;;17.30;93.90;;;;;;10484196;28;20438;-23
2023/11/27 05:31:14;;;;;;;0.55;0.45;;;17.40;93.90;;;;;;10483186;28;20075;-22
2023/11/27 05:36:16;;;;;;;0.55;0.55;;;17.30;94.00;;;;;;10463180;28;21415;-23
2023/11/27 05:41:22;;;;;;;0.55;0.40;;;17.40;94.10;;;;;;10479117;28;20048;-23
2023/11/27 05:46:25;;;;;;;0.68;0.47;;;17.40;94.00;;;;;;10479260;28;20078;-23
2023/11/27 05:51:27;;;;;;;0.70;0.60;;;17.40;94.10;;;;;;10474554;28;20126;-23
2023/11/27 05:56:29;;;;;;;1.10;0.50;;;17.40;94.20;;;;;;10466765;28;20053;-22
2023/11/27 06:01:32;;;;;;;1.23;0.50;;;17.50;94.10;;;;;;10479163;28;20533;-24
2023/11/27 06:06:34;;;;;;;0.63;0.60;;;17.50;94.20;;;;;;10470876;28;20477;-23
2023/11/27 06:11:35;;;;;;;0.40;0.40;;;17.50;94.20;;;;;;10467475;28;20832;-22
2023/11/27 06:16:39;;;;;;;0.37;0.37;;;17.60;94.10;;;;;;10469830;28;20500;-22
2023/11/27 06:21:41;;;;;;;0.80;0.65;;;17.50;94.20;;;;;;10467860;28;20494;-22
2023/11/27 06:26:43;;;;;;;;;;;17.50;94.20;;;;;;10474389;28;20053;-23
2023/11/27 06:31:46;;;;;;;1.83;0.63;;;17.60;94.50;;;;;;10464139;28;19936;-22
2023/11/27 06:36:48;;;;;;;0.52;0.50;;;17.60;94.30;;;;;;10464429;28;20056;-22
2023/11/27 06:41:51;;;;;;;0.40;0.40;;;17.60;94.20;;;;;;10476591;28;20121;-22
2023/11/27 06:46:54;;;;;;;1.45;0.60;;;17.60;94.30;;;;;;10468649;28;20256;-21
2023/11/27 06:51:56;;;;;;;0.68;0.52;;;17.60;94.20;;;;;;10469934;28;20478;-22
2023/11/27 06:56:58;;;;;;;1.43;0.50;;;17.60;94.50;;;;;;10472458;28;20055;-22
2023/11/27 07:02:01;;;;;;;0.63;0.33;;;17.60;94.30;;;;;;10466906;28;20044;-22
2023/11/27 07:07:03;;;;;;;3.05;0.57;;;17.60;94.30;;;;;;10461635;28;20110;-22
2023/11/27 07:12:06;;;;;;;1.05;0.73;;;17.60;94.30;;;;;;10464376;28;20181;-23
2023/11/27 07:17:09;;;;;;;3.45;0.57;;;17.60;94.20;;;;;;10476870;28;20082;-23
2023/11/27 07:22:11;;;;;;;1.02;0.60;;;17.70;94.20;;;;;;10473389;28;20076;-23
2023/11/27 07:27:15;;;;;;;5.80;2.38;;;17.60;94.30;;;;;;10467773;28;20048;-23
2023/11/27 07:32:18;;;;;;;2.28;0.50;;;17.60;94.30;;;;;;10468265;28;20044;-23
2023/11/27 07:37:20;;;;;;;2.55;0.50;;;17.60;94.30;;;;;;10467742;28;20095;-22
2023/11/27 07:42:22;;;;;;;0.40;0.37;;;17.60;94.30;;;;;;10469024;28;20063;-23
2023/11/27 07:47:25;;;;;;;0.67;0.40;;;17.60;94.40;;;;;;10464125;28;20084;-23
2023/11/27 07:52:28;;;;;;;0.60;0.60;;;17.60;94.20;;;;;;10470955;28;20040;-23
2023/11/27 07:57:30;;;;;;;3.40;0.85;;;17.60;94.20;;;;;;10464037;28;20084;-22
2023/11/27 08:02:33;;;;;;;0.80;0.70;;;17.60;94.20;;;;;;10455887;28;20053;-21
2023/11/27 08:07:35;;;;;;;0.80;0.63;;;17.60;94.00;;;;;;10470832;28;20041;-22
2023/11/27 08:12:37;;;;;;;0.82;0.50;;;17.70;94.10;;;;;;10463770;28;20857;-22
2023/11/27 08:17:40;;;;;;;1.27;0.73;;;17.60;94.30;;;;;;10450490;28;20142;-22
2023/11/27 08:22:43;;;;;;;4.35;0.60;;;17.60;94.30;;;;;;10447445;28;20053;-21
2023/11/27 08:27:46;;;;;;;6.25;0.65;;;17.60;94.40;;;;;;10463884;28;20045;-22
2023/11/27 08:32:50;;;;;;;0.63;0.50;;;17.60;94.30;;;;;;10460903;28;21200;-22
2023/11/27 08:37:52;;;;;;;0.60;0.43;;;17.50;94.40;;;;;;10458949;28;20065;-23
2023/11/27 08:42:53;;;;;;;0.60;0.40;;;17.10;93.90;;;;;;10454490;28;21304;-22
2023/11/27 08:48:00;;;;;;;0.80;0.70;;;15.90;97.10;;;;;;10460621;28;20044;-22
2023/11/27 08:53:05;;;;;;;1.10;0.50;;;16.00;99.20;;;;;;10464478;28;20048;-23
2023/11/27 08:58:07;;;;;;;2.25;0.90;;;15.50;99.00;;;;;;10465386;28;20202;-23
2023/11/27 09:03:10;;;;;;;0.83;0.63;;;14.30;99.90;;;;;;10467238;28;20583;-22
2023/11/27 09:08:13;;;;;;;0.98;0.60;;;14.90;99.90;;;;;;10474886;28;20059;-23
2023/11/27 09:13:15;;;;;;;1.35;1.05;;;15.20;96.70;;;;;;10473683;28;20240;-23
2023/11/27 09:18:18;;;;;;;1.17;0.67;;;13.30;99.90;;;;;;10469754;28;20055;-23
2023/11/27 09:23:20;;;;;;;1.08;0.70;;;16.10;99.90;;;;;;10467279;28;20048;-22
2023/11/27 09:28:22;;;;;;;1.53;1.10;;;15.20;99.90;;;;;;10460492;28;20068;-22
2023/11/27 09:33:26;;;;;;;1.42;0.70;;;16.30;99.40;;;;;;10461729;28;21380;-22
2023/11/27 09:38:28;;;;;;;2.40;0.90;;;15.40;99.70;;;;;;10468690;28;20060;-23
2023/11/27 09:43:31;;;;;;;1.10;0.70;;;15.40;99.30;;;;;;10460838;28;20048;-22
2023/11/27 09:48:39;;;;;;;1.10;0.77;;;14.60;99.90;;;;;;10466420;28;20820;-22
2023/11/27 09:53:47;;;;;;;1.77;0.70;;;13.20;99.90;;;;;;10467972;28;20715;-23
2023/11/27 09:58:50;;;;;;;2.17;1.00;;;13.80;99.90;;;;;;10458109;28;20338;-22
2023/11/27 10:03:53;;;;;;;1.75;0.80;;;13.60;99.90;;;;;;10456555;28;20107;-22
2023/11/27 10:09:04;;;;;;;3.85;0.90;;;14.60;99.90;;;;;;10458197;28;20243;-23
2023/11/27 10:14:08;;;;;;;1.45;0.95;;;14.40;99.90;;;;;;10453621;28;20052;-22
2023/11/27 10:19:19;;;;;;;2.75;1.05;;;15.40;99.90;;;;;;10456254;28;20060;-22
2023/11/27 10:24:21;;;;;;;1.98;0.90;;;15.90;99.90;;;;;;10460363;28;20423;-23
2023/11/27 10:29:26;;;;;;;2.88;0.80;;;13.80;99.90;;;;;;10466689;28;20048;-23
2023/11/27 10:34:32;;;;;;;4.30;0.77;;;14.70;99.90;;;;;;10462469;28;20044;-22
2023/11/27 10:39:34;;;;;;;1.33;0.60;;;14.80;99.90;;;;;;10469305;28;20060;-22
2023/11/27 10:44:38;;;;;;;5.38;1.02;;;15.60;99.90;;;;;;10457073;28;20116;-22
2023/11/27 10:49:45;;;;;;;1.00;0.80;;;15.00;99.90;;;;;;10451880;28;20044;-22
2023/11/27 10:54:48;;;;;;;2.17;0.80;;;14.20;99.90;;;;;;10453667;28;20139;-22
2023/11/27 10:59:51;;;;;;;2.95;1.08;;;15.90;99.90;;;;;;10451521;28;20215;-22
2023/11/27 11:04:58;;;;;;;1.85;0.80;;;15.00;99.90;;;;;;10454124;28;20740;-22
2023/11/27 11:10:05;;;;;;;4.18;1.55;;;15.40;99.90;;;;;;10463527;28;20044;-23
2023/11/27 11:15:08;;;;;;;3.45;0.77;;;15.60;99.70;;;;;;10460968;28;20091;-22
2023/11/27 11:20:28;;;;;;;1.92;1.00;;;14.80;99.90;;;;;;10462365;28;20835;-22
2023/11/27 11:25:39;;;;;;;3.35;0.73;;;16.30;98.40;;;;;;10454624;28;20140;-22
2023/11/27 11:30:42;;;;;;;0.57;0.57;;;16.70;98.60;;;;;;10456220;28;20055;-23
2023/11/27 11:35:50;;;;;;;1.23;0.80;;;16.90;96.80;;;;;;10456593;28;20210;-23
2023/11/27 11:40:52;;;;;;;1.65;0.63;;;15.20;99.90;;;;;;10464693;28;20067;-22
2023/11/27 11:45:57;;;;;;;1.83;0.73;;;16.70;98.00;;;;;;10451873;28;20048;-23
2023/11/27 11:51:06;;;;;;;1.88;1.00;;;17.10;96.80;;;;;;10452964;28;20265;-22
2023/11/27 11:56:20;;;;;;;0.75;0.50;;;17.10;96.50;;;;;;10454663;28;20908;-23
2023/11/27 12:01:22;;;;;;;2.00;0.82;;;17.20;96.20;;;;;;10450236;28;20198;-22
2023/11/27 12:06:26;;;;;;;1.55;0.77;;;17.40;95.60;;;;;;10459969;28;20059;-23
2023/11/27 12:11:31;;;;;;;4.45;0.73;;;17.40;95.40;;;;;;10457618;28;20060;-22
2023/11/27 12:16:32;;;;;;;4.43;0.80;;;17.40;95.40;;;;;;10465161;28;20040;-22
2023/11/27 12:21:36;;;;;;;3.37;1.00;;;17.40;95.30;;;;;;10458114;28;20045;-21
2023/11/27 12:26:38;;;;;;;2.08;1.10;;;17.40;95.20;;;;;;10453578;28;20040;-23
2023/11/27 12:31:40;;;;;;;1.65;0.70;;;17.50;95.10;;;;;;10460490;28;20056;-22
2023/11/27 12:36:44;;;;;;;5.93;0.60;;;17.50;95.10;;;;;;10469731;28;20047;-22
2023/11/27 12:41:46;;;;;;;4.45;0.85;;;17.50;95.00;;;;;;10452484;28;20056;-22
2023/11/27 12:46:52;;;;;;;3.97;1.03;;;17.50;95.00;;;;;;10456069;28;20069;-23
2023/11/27 12:51:57;;;;;;;8.95;1.10;;;17.50;95.10;;;;;;10477752;28;20052;-23
2023/11/27 12:57:00;;;;;;;8.07;0.95;;;17.50;95.10;;;;;;10457840;28;20059;-22
2023/11/27 13:02:02;;;;;;;2.78;0.82;;;17.60;95.10;;;;;;10472831;28;20045;-23
2023/11/27 13:07:09;;;;;;;3.57;0.70;;;17.50;95.10;;;;;;10472012;28;20109;-22
2023/11/27 13:12:18;;;;;;;3.42;1.05;;;17.50;95.00;;;;;;10473696;28;20787;-23
2023/11/27 13:17:20;;;;;;;2.15;0.98;;;17.60;95.00;;;;;;10456377;28;20098;-22
2023/11/27 13:22:23;;;;;;;2.37;0.90;;;17.50;95.10;;;;;;10464303;28;20040;-22
2023/11/27 13:27:30;;;;;;;2.55;0.85;;;17.60;95.10;;;;;;10466798;28;20830;-22
2023/11/27 13:32:32;;;;;;;3.00;1.00;;;17.50;95.00;;;;;;10452809;28;20068;-23
2023/11/27 13:37:38;;;;;;;1.30;0.53;;;17.60;95.00;;;;;;10460950;28;20770;-23
2023/11/27 13:42:39;;;;;;;1.85;0.63;;;17.50;95.00;;;;;;10458455;28;20052;-23
2023/11/27 13:47:43;;;;;;;6.15;0.98;;;17.60;95.00;;;;;;10451013;28;20807;-23
2023/11/27 13:52:47;;;;;;;1.58;0.70;;;17.50;95.00;;;;;;10464733;28;20052;-23
2023/11/27 13:57:51;;;;;;;2.95;0.80;;;17.60;95.00;;;;;;10466610;28;20087;-22
2023/11/27 14:02:53;;;;;;;3.45;0.70;;;17.50;95.10;;;;;;10462297;28;20056;-21
2023/11/27 14:08:01;;;;;;;1.45;0.70;;;17.60;95.30;;;;;;10462567;28;20049;-21
2023/11/27 14:13:08;;;;;;;1.33;1.00;;;17.60;95.10;;;;;;10465999;28;21226;-23
2023/11/27 14:18:49;;;;;;;3.13;1.02;;;17.60;95.20;;;;;;10454774;28;20199;-21
2023/11/27 14:23:54;;;;;;;4.78;1.00;;;17.70;95.30;;;;;;10461989;28;20077;-21
2023/11/27 14:29:00;;;;;;;3.85;0.93;;;17.70;95.40;;;;;;10467380;28;20053;-23
2023/11/27 14:34:03;;;;;;;1.35;0.70;;;17.70;95.40;;;;;;10456900;28;20055;-21
2023/11/27 14:39:16;;;;;;;2.35;0.88;;;17.60;95.40;;;;;;10464722;28;20052;-23
2023/11/27 14:44:18;;;;;;;2.10;0.75;;;17.60;95.60;;;;;;10467900;28;20109;-23
2023/11/27 14:49:20;;;;;;;1.92;1.08;;;17.60;95.60;;;;;;10454679;28;20061;-23
2023/11/27 14:54:26;;;;;;;1.90;0.90;;;17.30;96.40;;;;;;10455005;28;20049;-23
2023/11/27 14:59:28;;;;;;;2.65;0.95;;;17.30;96.60;;;;;;10454780;28;20052;-23
2023/11/27 15:04:30;;;;;;;4.53;0.82;;;16.70;97.10;;;;;;10465007;28;20134;-23
2023/11/27 15:09:33;;;;;;;1.43;0.90;;;17.50;96.10;;;;;;10459422;28;20068;-22
2023/11/27 15:14:35;;;;;;;3.33;0.82;;;17.50;96.10;;;;;;10464024;28;20055;-22
2023/11/27 15:19:37;;;;;;;2.53;1.30;;;17.40;96.20;;;;;;10462419;28;20044;-23
2023/11/27 15:24:40;;;;;;;3.60;0.90;;;17.50;94.60;;;;;;10457170;28;20423;-21
2023/11/27 15:29:42;;;;;;;2.28;0.90;;;17.40;96.10;;;;;;10462117;28;20521;-23
2023/11/27 15:34:44;;;;;;;1.90;1.10;;;17.60;96.00;;;;;;10461472;28;20079;-21
2023/11/27 15:39:48;;;;;;;2.20;0.90;;;17.70;95.70;;;;;;10460394;28;20470;-23
2023/11/27 15:44:50;;;;;;;1.70;1.15;;;17.30;95.20;;;;;;10470708;28;20782;-23
2023/11/27 15:49:53;;;;;;;2.10;1.50;;;17.10;96.90;;;;;;10465786;28;20142;-27
2023/11/27 15:54:56;;;;;;;1.85;0.93;;;17.60;96.10;;;;;;10466926;28;20520;-23
2023/11/27 15:59:58;;;;;;;8.93;1.45;;;17.30;96.80;;;;;;10458816;28;21545;-23
2023/11/27 16:05:01;;;;;;;1.80;0.87;;;17.50;96.40;;;;;;10464294;28;20403;-22
2023/11/27 16:10:05;;;;;;;4.35;1.00;;;17.50;95.90;;;;;;10467600;28;20470;-23
2023/11/27 16:15:10;;;;;;;2.25;0.70;;;17.60;95.90;;;;;;10463562;28;20052;-22
2023/11/27 16:20:12;;;;;;;2.78;0.75;;;17.50;96.10;;;;;;10462622;28;20055;-22
2023/11/27 16:25:17;;;;;;;3.85;1.00;;;17.50;96.00;;;;;;10458216;28;20068;-23
2023/11/27 16:30:20;;;;;;;3.85;1.20;;;17.50;96.00;;;;;;10458727;28;20719;-23
2023/11/27 16:35:22;;;;;;;4.22;1.25;;;17.40;96.20;;;;;;10470330;28;20048;-23
2023/11/27 16:40:25;;;;;;;3.13;1.00;;;17.50;96.30;;;;;;10463208;28;20186;-23
2023/11/27 16:45:27;;;;;;;4.15;1.15;;;17.60;94.60;;;;;;10462623;28;20524;-23
2023/11/27 16:50:30;;;;;;;1.50;0.80;;;17.40;95.50;;;;;;10468036;28;20138;-23
2023/11/27 16:55:35;;;;;;;6.65;0.80;;;17.40;95.90;;;;;;10466916;28;20048;-23
2023/11/27 17:00:38;;;;;;;3.83;1.00;;;17.50;96.20;;;;;;10462086;28;20055;-32
2023/11/27 17:05:39;;;;;;;;;;;16.40;91.70;;;;;;10468935;28;20048;-23
2023/11/27 17:10:44;;;;;;;2.05;1.05;;;15.40;97.80;;;;;;10470839;28;19967;-23
2023/11/27 17:15:47;;;;;;;4.35;1.00;;;15.70;99.90;;;;;;10468570;28;20613;-23
2023/11/27 17:20:50;;;;;;;4.63;1.92;;;17.10;96.60;;;;;;10453595;28;20079;-23
2023/11/27 17:25:53;;;;;;;5.72;2.97;;;17.10;96.60;;;;;;10474386;28;20424;-22
2023/11/27 17:30:56;;;;;;;17.92;3.95;;;16.70;91.10;;;;;;10470287;28;20044;-23
2023/11/27 17:35:58;;;;;;;13.75;4.05;;;17.00;97.90;;;;;;10460771;28;20093;-23
2023/11/27 17:41:01;;;;;;;13.77;4.97;;;17.00;96.60;;;;;;10475488;28;20052;-23
2023/11/27 17:46:03;;;;;;;21.83;6.38;;;17.30;97.00;;;;;;10467409;28;20101;-23
2023/11/27 17:51:06;;;;;;;17.15;5.47;;;17.30;95.00;;;;;;10464198;28;20140;-23
2023/11/27 17:56:09;;;;;;;;;;;16.60;93.90;;;;;;10475603;28;20087;-23
2023/11/27 18:01:11;;;;;;;16.50;4.65;;;15.50;97.90;;;;;;10474219;28;20306;-23
2023/11/27 18:06:15;;;;;;;11.23;4.93;;;14.90;97.10;;;;;;10473875;28;20076;-23
2023/11/27 18:11:18;;;;;;;8.63;4.28;;;14.40;99.90;;;;;;10475364;28;20602;-23
2023/11/27 18:16:20;;;;;;;9.63;3.72;;;14.80;99.90;;;;;;10477202;28;20055;-22
2023/11/27 18:21:24;;;;;;;7.83;3.70;;;15.40;98.70;;;;;;10478459;28;20137;-22
2023/11/27 18:26:30;;;;;;;10.20;3.90;;;15.20;97.30;;;;;;10464893;28;20053;-23
2023/11/27 18:31:34;;;;;;;6.82;3.38;;;14.40;99.90;;;;;;10475807;28;20048;-23
2023/11/27 18:36:35;;;;;;;6.00;3.42;;;14.20;99.70;;;;;;10472182;28;20266;-23
2023/11/27 18:41:39;;;;;;;5.77;3.57;;;14.20;99.90;;;;;;10472187;28;20056;-22
2023/11/27 18:46:41;;;;;;;6.55;3.92;;;13.70;99.90;;;;;;10465320;28;20056;-23
2023/11/27 18:51:42;;;;;;;7.27;3.17;;;14.80;99.90;;;;;;10475427;28;20174;-23
2023/11/27 18:56:46;;;;;;;6.87;3.33;;;15.40;99.90;;;;;;10466562;28;20074;-23
2023/11/27 19:01:48;;;;;;;7.80;3.60;;;14.50;99.90;;;;;;10475529;28;20470;-22
2023/11/27 19:06:50;;;;;;;7.72;3.13;;;16.00;99.10;;;;;;10462788;28;20798;-22
2023/11/27 19:11:53;;;;;;;5.93;2.80;;;16.60;96.70;;;;;;10468336;28;20431;-23
2023/11/27 19:16:56;;;;;;;5.80;2.95;;;16.60;96.10;;;;;;10464429;28;21129;-23
2023/11/27 19:21:57;;;;;;;;;;;16.90;96.40;;;;;;10460250;28;20059;-21
2023/11/27 19:27:03;;;;;;;4.10;2.17;;;16.90;96.30;;;;;;10469464;28;19935;-22
2023/11/27 19:32:07;;;;;;;4.88;2.50;;;16.80;96.00;;;;;;10468039;28;20094;-22
2023/11/27 19:37:09;;;;;;;6.18;2.40;;;17.10;96.10;;;;;;10470181;28;20159;-23
2023/11/27 19:42:13;;;;;;;8.23;2.10;;;17.00;96.40;;;;;;10459421;28;20053;-22
2023/11/27 19:47:16;;;;;;;5.13;1.92;;;17.10;96.10;;;;;;10460704;28;20056;-22
2023/11/27 19:52:17;;;;;;;;;;;16.90;96.40;;;;;;10449878;28;20063;-22
2023/11/27 19:57:21;;;;;;;4.97;2.25;;;17.10;95.90;;;;;;10459333;28;20492;-23
2023/11/27 20:02:23;;;;;;;5.20;1.85;;;17.10;96.10;;;;;;10457654;28;20044;-23
2023/11/27 20:07:24;;;;;;;2.80;2.00;;;17.00;96.40;;;;;;10463187;28;20149;-23
2023/11/27 20:12:28;;;;;;;3.33;1.67;;;16.90;97.10;;;;;;10460331;28;20057;-23
2023/11/27 20:17:32;;;;;;;7.95;2.30;;;17.10;96.60;;;;;;10466400;28;20049;-23
2023/11/27 20:22:34;;;;;;;4.53;2.20;;;17.10;96.10;;;;;;10458067;28;20352;-24
2023/11/27 20:27:37;;;;;;;4.50;1.73;;;17.20;96.10;;;;;;10458171;28;20072;-23
2023/11/27 20:32:39;;;;;;;6.88;1.83;;;17.00;95.90;;;;;;10460772;28;20519;-22
2023/11/27 20:37:41;;;;;;;8.23;1.75;;;16.80;95.00;;;;;;10455467;28;20052;-23
2023/11/27 20:42:44;;;;;;;9.13;1.50;;;16.90;96.60;;;;;;10464715;28;20087;-22
2023/11/27 20:47:46;;;;;;;3.85;2.20;;;16.80;96.30;;;;;;10457645;28;20060;-23
2023/11/27 20:52:48;;;;;;;6.63;2.00;;;16.80;96.70;;;;;;10457494;28;20076;-23
2023/11/27 20:57:51;;;;;;;7.50;1.90;;;16.90;96.30;;;;;;10473704;28;20048;-23
2023/11/27 21:02:53;;;;;;;7.68;2.47;;;17.10;95.60;;;;;;10458351;28;20583;-23
2023/11/27 21:07:55;;;;;;;7.47;1.70;;;17.00;95.80;;;;;;10470053;28;20532;-22
2023/11/27 21:12:59;;;;;;;9.32;2.03;;;17.00;95.50;;;;;;10469652;28;20512;-23
2023/11/27 21:18:01;;;;;;;5.97;2.03;;;16.90;95.50;;;;;;10462262;28;20053;-23
2023/11/27 21:23:03;;;;;;;2.93;1.50;;;16.70;96.40;;;;;;10469556;28;20108;-23
2023/11/27 21:28:07;;;;;;;9.15;3.42;;;16.90;93.50;;;;;;10474440;28;20529;-23
2023/11/27 21:33:09;;;;;;;6.63;1.63;;;16.90;96.10;;;;;;10466020;28;20062;-23
2023/11/27 21:38:11;;;;;;;4.80;1.53;;;16.40;94.80;;;;;;10473506;28;20077;-23
2023/11/27 21:43:14;;;;;;;3.00;1.47;;;16.90;96.00;;;;;;10470766;28;20130;-23
2023/11/27 21:48:16;;;;;;;4.18;1.70;;;17.00;95.70;;;;;;10464622;28;20174;-22
2023/11/27 21:53:17;;;;;;;8.10;1.80;;;16.70;91.50;;;;;;10475928;28;20056;-23
2023/11/27 21:58:21;;;;;;;3.53;1.20;;;17.10;95.80;;;;;;10480232;28;20565;-22
2023/11/27 22:03:22;;;;;;;3.47;1.50;;;17.20;95.50;;;;;;10480055;28;20144;-23
2023/11/27 22:08:24;;;;;;;4.53;1.63;;;17.20;95.70;;;;;;10480066;28;20531;-23
2023/11/27 22:13:28;;;;;;;4.43;1.67;;;17.10;95.60;;;;;;10476411;28;20068;-24
2023/11/27 22:18:29;;;;;;;4.68;1.52;;;17.20;94.80;;;;;;10471945;28;20435;-23
2023/11/27 22:23:31;;;;;;;4.87;1.73;;;17.20;95.70;;;;;;10482140;28;20057;-23
2023/11/27 22:28:35;;;;;;;6.97;2.00;;;17.10;95.40;;;;;;10481993;28;20056;-23
2023/11/27 22:33:36;;;;;;;6.28;2.00;;;17.30;95.50;;;;;;10477724;28;20051;-23
2023/11/27 22:38:39;;;;;;;5.10;1.47;;;17.30;95.40;;;;;;10478646;28;20049;-23
2023/11/27 22:43:42;;;;;;;7.03;1.67;;;17.10;95.90;;;;;;10463054;28;20049;-23
2023/11/27 22:48:44;;;;;;;7.03;1.55;;;17.30;95.30;;;;;;10468167;28;20055;-22
2023/11/27 22:53:46;;;;;;;6.83;1.67;;;17.40;95.20;;;;;;10475780;28;20424;-23
2023/11/27 22:58:50;;;;;;;7.63;1.95;;;17.30;95.10;;;;;;10483995;28;20108;-23
2023/11/27 23:03:51;;;;;;;7.45;1.50;;;17.00;95.90;;;;;;10478845;28;20056;-22
2023/11/27 23:08:53;;;;;;;9.83;1.67;;;17.10;95.50;;;;;;10477782;28;20064;-23
2023/11/27 23:13:57;;;;;;;3.58;2.22;;;16.90;95.80;;;;;;10475298;28;20056;-23
2023/11/27 23:18:58;;;;;;;4.13;1.95;;;16.90;96.00;;;;;;10467531;28;20040;-22
2023/11/27 23:24:00;;;;;;;3.60;2.00;;;16.90;95.40;;;;;;10484031;28;20449;-23
2023/11/27 23:29:05;;;;;;;6.07;1.70;;;16.10;97.30;;;;;;10474271;28;20052;-22
2023/11/27 23:34:07;;;;;;;4.90;1.83;;;16.30;97.40;;;;;;10473919;28;20483;-23
2023/11/27 23:39:09;;;;;;;6.00;1.17;;;16.80;96.00;;;;;;10475737;28;20048;-22
2023/11/27 23:44:12;;;;;;;5.30;1.38;;;16.80;95.90;;;;;;10478436;28;20064;-22
2023/11/27 23:49:14;;;;;;;2.50;1.25;;;16.70;95.70;;;;;;10479712;28;20043;-22
2023/11/27 23:54:16;;;;;;;1.60;1.00;;;15.40;97.20;;;;;;10472604;28;20116;-23
2023/11/27 23:59:19;;;;;;;2.67;1.00;;;16.40;94.00;;;;;;10471872;28;20053;-32
